EFHK/HEL METAR and TAF weather

Enter ICAO airport designator
Station Type Date Time Source
EFHK METAR 2018/12/12 04:50 UTC NOAA

EFHK 120450Z 03009KT 9999 FEW012 BKN016 M00/M02 Q1025 NOSIG


Station Type Date Time Source
EFHK Decoded METAR 2018/12/12 04:50 UTC NOAA

Helsinki-Vantaa, Finland (EFHK) 60-19N 024-58E 56M
Dec 11, 2018 - 11:50 PM EST / 2018.12.12 0450 UTC
Wind: from the NNE (030 degrees) at 10 MPH (9 KT):0
Visibility: greater than 7 mile(s):0
Sky conditions: mostly cloudy
Temperature: 32 F (0 C)
Windchill: 23 F (-5 C):1
Dew Point: 28 F (-2 C)
Relative Humidity: 86%
Pressure (altimeter): 30.27 in. Hg (1025 hPa)
ob: EFHK 120450Z 03009KT 9999 FEW012 BKN016 M00/M02 Q1025 NOSIG
cycle: 5

Station Type Date Time Source
EFHK TAF 2018/12/12 03:55 UTC NOAA

TAF EFHK 120349Z 1203/1303 36005KT 9999 BKN009
TEMPO 1203/1205 BKN020
BECMG 1205/1207 BKN030


Example: see airport list